Time;durP1;ratioP1;P1;durP2;ratioP2;P2;SDS_P1;SDS_P2;PMS_P1;PMS_P2;Temp;Humidity;BMP_temperature;BMP_pressure;BME280_temperature;BME280_humidity;BME280_pressure;Samples;Min_cycle;Max_cycle;Signal;HPM_P1;HPM_P2
2022/12/27 00:00:34;;;;;;;58.70;3.60;;;;;;;;;;5033260;28;21028;-74
2022/12/27 00:03:01;;;;;;;60.23;3.17;;;;;;;;;;5033734;28;20449;-74
2022/12/27 00:05:28;;;;;;;58.73;3.83;;;;;;;;;;5034038;28;20900;-74
2022/12/27 00:07:57;;;;;;;58.00;3.33;;;;;;;;;;5033861;28;20453;-74
2022/12/27 00:10:24;;;;;;;57.87;3.30;;;;;;;;;;5033080;28;20934;-75
2022/12/27 00:12:52;;;;;;;62.07;3.60;;;;;;;;;;5033697;28;20459;-74
2022/12/27 00:15:19;;;;;;;58.20;3.37;;;;;;;;;;5033531;28;20961;-75
2022/12/27 00:17:46;;;;;;;60.90;3.80;;;;;;;;;;5033727;28;20800;-74
2022/12/27 00:20:13;;;;;;;60.20;3.70;;;;;;;;;;5032899;28;20485;-74
2022/12/27 00:22:40;;;;;;;60.07;3.20;;;;;;;;;;5033586;28;20447;-74
2022/12/27 00:25:10;;;;;;;59.90;3.40;;;;;;;;;;5033343;28;20453;-74
2022/12/27 00:27:37;;;;;;;60.78;4.47;;;;;;;;;;5033396;28;20460;-74
2022/12/27 00:30:05;;;;;;;60.70;3.37;;;;;;;;;;5032444;28;20214;-74
2022/12/27 00:32:32;;;;;;;60.80;3.80;;;;;;;;;;5033396;28;20477;-74
2022/12/27 00:34:59;;;;;;;60.30;3.90;;;;;;;;;;5040470;28;20957;-74
2022/12/27 00:37:26;;;;;;;58.87;3.43;;;;;;;;;;5053161;28;20461;-74
2022/12/27 00:39:53;;;;;;;59.07;3.40;;;;;;;;;;5052495;28;20456;-75
2022/12/27 00:42:22;;;;;;;59.30;3.50;;;;;;;;;;5052874;28;20498;-75
2022/12/27 00:44:49;;;;;;;60.23;3.73;;;;;;;;;;5052321;28;20838;-75
2022/12/27 00:47:16;;;;;;;59.88;3.20;;;;;;;;;;5053136;28;20456;-75
2022/12/27 00:49:43;;;;;;;58.27;3.23;;;;;;;;;;5052139;28;20409;-75
2022/12/27 00:52:10;;;;;;;58.40;3.13;;;;;;;;;;5052857;28;20535;-75
2022/12/27 00:54:37;;;;;;;58.50;3.40;;;;;;;;;;5052796;28;20448;-75
2022/12/27 00:57:04;;;;;;;59.47;3.30;;;;;;;;;;5052620;28;20464;-75
2022/12/27 00:59:33;;;;;;;58.77;3.20;;;;;;;;;;5051818;28;20479;-75
2022/12/27 01:02:00;;;;;;;60.17;4.10;;;;;;;;;;5052529;28;21004;-75
2022/12/27 01:04:27;;;;;;;61.50;3.70;;;;;;;;;;5052760;28;20448;-75
2022/12/27 01:06:54;;;;;;;58.38;3.30;;;;;;;;;;5052666;28;20216;-74
2022/12/27 01:09:21;;;;;;;59.40;3.43;;;;;;;;;;5051723;28;20209;-74
2022/12/27 01:11:48;;;;;;;58.70;3.20;;;;;;;;;;5052190;28;20464;-75
2022/12/27 01:14:16;;;;;;;59.88;3.35;;;;;;;;;;5052593;28;20822;-76
2022/12/27 01:16:44;;;;;;;59.33;3.70;;;;;;;;;;5052813;28;20202;-76
2022/12/27 01:19:11;;;;;;;60.73;3.60;;;;;;;;;;5052091;28;20206;-75
2022/12/27 01:21:38;;;;;;;58.70;3.30;;;;;;;;;;5052786;28;20476;-75
2022/12/27 01:24:06;;;;;;;58.75;3.70;;;;;;;;;;5052569;28;20674;-76
2022/12/27 01:26:33;;;;;;;63.85;3.60;;;;;;;;;;5052766;28;20629;-76
2022/12/27 01:29:00;;;;;;;59.92;3.80;;;;;;;;;;5051702;28;20210;-76
2022/12/27 01:31:28;;;;;;;59.25;3.42;;;;;;;;;;5052293;28;20233;-75
2022/12/27 01:33:57;;;;;;;57.95;2.70;;;;;;;;;;5052360;28;20701;-76
2022/12/27 01:36:25;;;;;;;58.00;2.90;;;;;;;;;;5052402;28;20216;-75
2022/12/27 01:38:53;;;;;;;59.78;3.30;;;;;;;;;;5051139;28;20227;-75
2022/12/27 01:44:25;;;;;;;59.20;3.30;;;;;;;;;;5052127;28;20294;-75
2022/12/27 01:46:52;;;;;;;58.75;3.10;;;;;;;;;;5051801;28;20212;-75
2022/12/27 01:49:20;;;;;;;60.85;3.60;;;;;;;;;;5051122;28;20204;-75
2022/12/27 01:51:47;;;;;;;58.40;3.33;;;;;;;;;;5051680;28;20692;-75
2022/12/27 01:54:15;;;;;;;59.75;3.47;;;;;;;;;;5051855;28;20214;-74
2022/12/27 01:56:42;;;;;;;59.83;3.78;;;;;;;;;;5051179;28;20209;-74
2022/12/27 01:59:10;;;;;;;59.22;3.40;;;;;;;;;;5051004;28;20205;-74
2022/12/27 02:01:39;;;;;;;67.95;4.20;;;;;;;;;;5051424;28;20237;-74
2022/12/27 02:04:07;;;;;;;63.85;3.72;;;;;;;;;;5051816;28;20205;-74
2022/12/27 02:06:37;;;;;;;58.65;3.88;;;;;;;;;;5051677;28;20213;-74
2022/12/27 02:09:08;;;;;;;59.70;3.85;;;;;;;;;;5051065;28;20214;-74
2022/12/27 02:11:51;;;;;;;59.95;3.60;;;;;;;;;;5052095;28;20219;-75
2022/12/27 02:14:20;;;;;;;59.60;4.00;;;;;;;;;;5052479;28;20212;-74
2022/12/27 02:16:47;;;;;;;58.78;3.85;;;;;;;;;;5052823;28;20204;-75
2022/12/27 02:19:18;;;;;;;59.92;3.55;;;;;;;;;;5051955;28;20213;-74
2022/12/27 02:22:03;;;;;;;59.38;3.65;;;;;;;;;;5049007;28;20239;-75
2022/12/27 02:24:47;;;;;;;58.58;3.65;;;;;;;;;;5051389;28;20213;-74
2022/12/27 02:27:22;;;;;;;58.17;3.50;;;;;;;;;;5051763;28;20199;-75
2022/12/27 02:29:56;;;;;;;58.97;3.70;;;;;;;;;;5050765;28;20208;-75
2022/12/27 02:32:26;;;;;;;61.88;3.50;;;;;;;;;;5051014;28;20241;-75
2022/12/27 02:34:58;;;;;;;59.30;3.83;;;;;;;;;;5051756;28;20208;-75
2022/12/27 02:37:26;;;;;;;59.67;4.13;;;;;;;;;;5051488;28;20199;-74
2022/12/27 02:39:54;;;;;;;60.92;4.35;;;;;;;;;;5050630;28;20700;-75
2022/12/27 02:53:36;;;;;;;59.53;3.75;;;;;;;;;;5017661;28;20333;-74
2022/12/27 02:58:58;;;;;;;59.80;4.10;;;;;;;;;;5017291;28;20584;-75
2022/12/27 03:04:34;;;;;;;61.05;4.35;;;;;;;;;;5051345;28;20857;-74
2022/12/27 03:07:18;;;;;;;59.00;3.67;;;;;;;;;;5051115;28;20211;-75
2022/12/27 03:18:20;;;;;;;66.60;4.18;;;;;;;;;;5054535;28;20586;-74
2022/12/27 03:26:20;;;;;;;61.50;4.80;;;;;;;;;;5054397;28;20802;-74
2022/12/27 03:34:31;;;;;;;59.60;4.57;;;;;;;;;;5054469;28;20205;-74
2022/12/27 03:39:50;;;;;;;60.38;3.90;;;;;;;;;;5053685;28;20200;-74
2022/12/27 03:45:06;;;;;;;60.40;4.70;;;;;;;;;;5054186;28;20563;-74
2022/12/27 03:47:36;;;;;;;61.30;4.15;;;;;;;;;;5054291;28;20210;-74
2022/12/27 03:50:07;;;;;;;58.72;3.95;;;;;;;;;;5053647;28;20551;-75
2022/12/27 03:52:40;;;;;;;60.40;5.15;;;;;;;;;;5054453;28;20574;-74
2022/12/27 03:55:07;;;;;;;59.55;4.20;;;;;;;;;;5054020;28;20578;-74
2022/12/27 03:57:35;;;;;;;61.50;4.47;;;;;;;;;;5053709;28;20207;-75
2022/12/27 04:00:03;;;;;;;61.53;4.75;;;;;;;;;;5053354;28;20212;-75
2022/12/27 04:02:30;;;;;;;60.80;4.55;;;;;;;;;;5053484;28;20245;-74
2022/12/27 04:04:57;;;;;;;59.25;3.70;;;;;;;;;;5053778;28;20209;-75
2022/12/27 04:07:25;;;;;;;59.60;4.40;;;;;;;;;;5053736;28;20578;-74
2022/12/27 04:34:42;;;;;;;60.88;4.40;;;;;;;;;;5053271;28;20722;-74
2022/12/27 04:37:10;;;;;;;59.75;4.18;;;;;;;;;;5053036;28;20202;-74
2022/12/27 04:39:38;;;;;;;60.25;4.90;;;;;;;;;;5052561;28;20213;-74
2022/12/27 04:55:57;;;;;;;64.75;4.85;;;;;;;;;;5052798;28;20356;-74
2022/12/27 04:58:24;;;;;;;61.03;4.90;;;;;;;;;;5052769;28;20213;-75
2022/12/27 05:03:37;;;;;;;60.97;4.53;;;;;;;;;;5052755;28;20700;-74
2022/12/27 05:06:04;;;;;;;61.13;5.07;;;;;;;;;;5052485;28;20210;-74
2022/12/27 05:14:02;;;;;;;60.42;5.03;;;;;;;;;;5052778;28;20200;-74
2022/12/27 05:16:30;;;;;;;62.05;5.00;;;;;;;;;;5052290;28;20284;-74
2022/12/27 05:18:57;;;;;;;60.05;4.85;;;;;;;;;;5051626;28;20682;-74
2022/12/27 05:21:25;;;;;;;59.88;5.28;;;;;;;;;;5052428;28;20226;-74
2022/12/27 05:26:38;;;;;;;62.97;5.93;;;;;;;;;;5052292;28;20209;-74
2022/12/27 05:29:07;;;;;;;61.88;5.32;;;;;;;;;;5051812;28;20206;-74
2022/12/27 05:31:34;;;;;;;60.30;5.20;;;;;;;;;;5051865;28;20234;-74
2022/12/27 05:34:01;;;;;;;60.83;5.45;;;;;;;;;;5051987;28;20211;-74
2022/12/27 05:36:28;;;;;;;61.80;5.15;;;;;;;;;;5052128;28;20202;-74
2022/12/27 05:38:55;;;;;;;64.22;5.00;;;;;;;;;;5051219;28;20704;-74
2022/12/27 05:41:23;;;;;;;62.90;5.28;;;;;;;;;;5052052;28;20221;-74
2022/12/27 05:43:51;;;;;;;61.10;4.90;;;;;;;;;;5051949;28;20317;-74
2022/12/27 05:46:20;;;;;;;61.47;5.28;;;;;;;;;;5051776;28;20202;-74
2022/12/27 05:48:48;;;;;;;60.85;5.30;;;;;;;;;;5051626;28;20213;-74
2022/12/27 05:51:16;;;;;;;61.70;5.75;;;;;;;;;;5051853;28;20226;-74
2022/12/27 05:53:43;;;;;;;61.05;5.50;;;;;;;;;;5051750;28;20221;-74
2022/12/27 05:56:14;;;;;;;62.15;5.65;;;;;;;;;;5051694;28;20206;-75
2022/12/27 05:58:41;;;;;;;59.92;5.38;;;;;;;;;;5050913;28;20662;-74
2022/12/27 06:01:10;;;;;;;60.53;5.53;;;;;;;;;;5051827;28;20233;-74
2022/12/27 06:03:37;;;;;;;59.55;5.10;;;;;;;;;;5051689;28;20597;-74
2022/12/27 06:06:05;;;;;;;65.38;5.97;;;;;;;;;;5051611;28;20203;-74
2022/12/27 06:08:32;;;;;;;60.15;5.00;;;;;;;;;;5051105;28;20210;-74
2022/12/27 06:11:04;;;;;;;64.10;5.88;;;;;;;;;;5051672;28;20230;-74
2022/12/27 06:13:31;;;;;;;59.60;4.72;;;;;;;;;;5051461;28;20210;-74
2022/12/27 06:15:59;;;;;;;60.95;5.05;;;;;;;;;;5051719;28;20205;-74
2022/12/27 06:18:28;;;;;;;61.05;5.00;;;;;;;;;;5051476;28;20264;-74
2022/12/27 06:20:56;;;;;;;64.95;6.00;;;;;;;;;;5051014;28;20227;-74
2022/12/27 06:23:23;;;;;;;60.53;5.90;;;;;;;;;;5051313;28;20221;-74
2022/12/27 06:25:50;;;;;;;62.15;5.90;;;;;;;;;;5051424;28;20209;-76
2022/12/27 06:28:17;;;;;;;60.53;5.63;;;;;;;;;;5051456;28;20228;-74
2022/12/27 06:30:44;;;;;;;64.45;5.72;;;;;;;;;;5050791;28;20244;-74
2022/12/27 06:33:11;;;;;;;60.55;5.20;;;;;;;;;;5051297;28;20206;-74
2022/12/27 06:35:40;;;;;;;60.58;5.20;;;;;;;;;;5051039;28;20237;-74
2022/12/27 06:38:08;;;;;;;60.00;5.60;;;;;;;;;;5051379;28;20216;-74
2022/12/27 06:40:35;;;;;;;60.95;5.80;;;;;;;;;;5050644;28;20739;-74
2022/12/27 06:43:02;;;;;;;60.63;6.07;;;;;;;;;;5052421;28;20236;-74
2022/12/27 06:45:29;;;;;;;62.85;4.97;;;;;;;;;;5055182;28;20202;-74
2022/12/27 06:47:56;;;;;;;64.00;5.68;;;;;;;;;;5055160;28;20587;-74
2022/12/27 06:50:23;;;;;;;63.25;5.43;;;;;;;;;;5054478;28;20206;-74
2022/12/27 06:52:51;;;;;;;60.92;5.65;;;;;;;;;;5055109;28;20205;-74
2022/12/27 06:55:19;;;;;;;60.15;4.93;;;;;;;;;;5055199;28;20206;-74
2022/12/27 06:57:46;;;;;;;60.40;5.80;;;;;;;;;;5055163;28;20202;-74
2022/12/27 07:00:13;;;;;;;64.07;5.88;;;;;;;;;;5054329;28;20206;-74
2022/12/27 07:02:40;;;;;;;60.97;5.55;;;;;;;;;;5054993;28;20229;-74
2022/12/27 07:05:08;;;;;;;63.22;6.13;;;;;;;;;;5054660;28;20301;-74
2022/12/27 07:07:35;;;;;;;61.40;6.18;;;;;;;;;;5054915;28;20202;-74
2022/12/27 07:10:03;;;;;;;63.15;6.18;;;;;;;;;;5054151;28;20592;-74
2022/12/27 07:12:30;;;;;;;62.78;6.30;;;;;;;;;;5054752;28;20226;-74
2022/12/27 07:14:58;;;;;;;61.80;6.45;;;;;;;;;;5055049;28;20233;-74
2022/12/27 07:17:25;;;;;;;62.22;7.03;;;;;;;;;;5055039;28;20205;-74
2022/12/27 07:19:52;;;;;;;61.53;6.10;;;;;;;;;;5054090;28;20596;-74
2022/12/27 07:22:19;;;;;;;66.00;6.78;;;;;;;;;;5054506;28;20227;-73
2022/12/27 07:24:46;;;;;;;62.47;6.72;;;;;;;;;;5054598;28;20583;-74
2022/12/27 07:27:15;;;;;;;65.00;6.10;;;;;;;;;;5054567;28;20212;-74
2022/12/27 07:29:42;;;;;;;62.28;6.85;;;;;;;;;;5053670;28;20211;-73
2022/12/27 07:32:09;;;;;;;62.78;6.13;;;;;;;;;;5054064;28;20230;-74
2022/12/27 07:34:36;;;;;;;69.00;6.03;;;;;;;;;;5054463;28;20232;-73
2022/12/27 07:37:03;;;;;;;64.68;6.15;;;;;;;;;;5054550;28;20202;-74
2022/12/27 07:39:30;;;;;;;64.25;6.53;;;;;;;;;;5053385;28;20691;-74
2022/12/27 07:41:57;;;;;;;62.63;6.78;;;;;;;;;;5054065;28;20244;-73
2022/12/27 07:44:26;;;;;;;62.10;6.13;;;;;;;;;;5054017;28;20724;-73
2022/12/27 07:46:53;;;;;;;63.70;6.55;;;;;;;;;;5054023;28;20210;-74
2022/12/27 07:49:20;;;;;;;61.25;6.10;;;;;;;;;;5053281;28;20674;-73
2022/12/27 07:51:47;;;;;;;62.85;6.78;;;;;;;;;;5053766;28;20225;-75
2022/12/27 07:54:14;;;;;;;63.75;6.63;;;;;;;;;;5052648;28;20212;-74
2022/12/27 07:56:41;;;;;;;64.43;6.78;;;;;;;;;;5053803;28;20232;-74
2022/12/27 07:59:11;;;;;;;65.05;6.30;;;;;;;;;;5053010;28;20210;-74
2022/12/27 08:04:24;;;;;;;61.63;6.05;;;;;;;;;;5053384;28;20202;-74
2022/12/27 08:06:51;;;;;;;62.85;6.47;;;;;;;;;;5053801;28;20395;-75
2022/12/27 08:09:20;;;;;;;63.88;6.65;;;;;;;;;;5052892;28;20692;-74
2022/12/27 08:11:48;;;;;;;63.08;6.93;;;;;;;;;;5053585;28;20263;-75
2022/12/27 08:14:15;;;;;;;61.47;7.15;;;;;;;;;;5053779;28;20226;-75
2022/12/27 08:16:43;;;;;;;61.35;6.43;;;;;;;;;;5053607;28;20212;-74
2022/12/27 08:19:10;;;;;;;67.07;9.90;;;;;;;;;;5052879;28;20212;-74
2022/12/27 08:21:37;;;;;;;66.07;7.93;;;;;;;;;;5053231;28;20711;-74
2022/12/27 08:24:05;;;;;;;64.70;8.02;;;;;;;;;;5053488;28;20237;-74
2022/12/27 08:26:32;;;;;;;61.88;6.25;;;;;;;;;;5053164;28;20208;-74
2022/12/27 08:28:59;;;;;;;63.05;6.97;;;;;;;;;;5052726;28;20217;-75
2022/12/27 08:31:26;;;;;;;63.35;7.32;;;;;;;;;;5052959;28;20757;-75
2022/12/27 08:33:56;;;;;;;66.00;6.65;;;;;;;;;;5053244;28;20210;-74
2022/12/27 08:36:23;;;;;;;64.85;6.05;;;;;;;;;;5053099;28;20214;-74
2022/12/27 08:38:50;;;;;;;63.45;6.38;;;;;;;;;;5052306;28;20212;-74
2022/12/27 08:41:20;;;;;;;61.10;5.97;;;;;;;;;;5053097;28;20246;-74
2022/12/27 08:43:47;;;;;;;65.72;6.57;;;;;;;;;;5053106;28;20232;-74
2022/12/27 08:46:14;;;;;;;60.92;5.93;;;;;;;;;;5052955;28;20203;-74
2022/12/27 08:48:41;;;;;;;62.55;6.50;;;;;;;;;;5052117;28;20217;-74
2022/12/27 08:51:10;;;;;;;61.97;6.15;;;;;;;;;;5052809;28;20231;-74
2022/12/27 08:53:37;;;;;;;61.30;6.28;;;;;;;;;;5052686;28;20210;-74
2022/12/27 08:56:05;;;;;;;69.72;6.95;;;;;;;;;;5052896;28;20484;-74
2022/12/27 08:58:32;;;;;;;61.38;5.78;;;;;;;;;;5052304;28;20213;-74
2022/12/27 09:01:04;;;;;;;59.25;5.28;;;;;;;;;;5052984;28;20254;-74
2022/12/27 09:03:31;;;;;;;62.70;6.13;;;;;;;;;;5052567;28;20234;-74
2022/12/27 09:06:07;;;;;;;62.83;6.40;;;;;;;;;;5052020;28;20586;-74
2022/12/27 09:08:35;;;;;;;64.13;6.30;;;;;;;;;;5052069;28;20227;-75
2022/12/27 09:11:07;;;;;;;61.35;5.82;;;;;;;;;;5052769;28;20223;-74
2022/12/27 09:13:35;;;;;;;61.10;6.10;;;;;;;;;;5052698;28;20311;-74
2022/12/27 09:16:05;;;;;;;63.00;5.65;;;;;;;;;;5052704;28;20213;-74
2022/12/27 09:18:32;;;;;;;59.72;5.10;;;;;;;;;;5051746;28;20234;-74
2022/12/27 09:21:03;;;;;;;60.13;5.35;;;;;;;;;;5052789;28;20228;-74
2022/12/27 09:23:30;;;;;;;62.05;4.90;;;;;;;;;;5052472;28;20224;-74
2022/12/27 09:25:58;;;;;;;61.65;5.78;;;;;;;;;;5052536;28;20271;-74
2022/12/27 09:28:26;;;;;;;61.03;5.32;;;;;;;;;;5052641;28;20212;-74
2022/12/27 09:30:53;;;;;;;61.33;4.70;;;;;;;;;;5051876;28;20735;-74
2022/12/27 09:33:20;;;;;;;61.80;4.53;;;;;;;;;;5052277;28;20205;-74
2022/12/27 09:35:47;;;;;;;60.28;4.30;;;;;;;;;;5052461;28;20708;-74
2022/12/27 09:38:14;;;;;;;60.50;4.43;;;;;;;;;;5052494;28;20215;-74
2022/12/27 09:40:51;;;;;;;60.15;4.43;;;;;;;;;;5051532;28;20249;-74
2022/12/27 09:43:22;;;;;;;60.40;4.60;;;;;;;;;;5051908;28;20232;-74
2022/12/27 09:45:51;;;;;;;59.70;4.50;;;;;;;;;;5052237;28;20458;-74
2022/12/27 09:48:20;;;;;;;61.10;4.37;;;;;;;;;;5051901;28;20526;-74
2022/12/27 09:50:49;;;;;;;63.63;5.00;;;;;;;;;;5051663;28;20479;-74
2022/12/27 09:53:19;;;;;;;60.00;3.80;;;;;;;;;;5051768;28;20797;-75
2022/12/27 09:55:47;;;;;;;63.27;4.40;;;;;;;;;;5051814;28;20963;-76
2022/12/27 09:58:20;;;;;;;59.90;4.30;;;;;;;;;;5051987;28;20459;-75
2022/12/27 10:00:51;;;;;;;60.00;4.23;;;;;;;;;;5051385;28;20917;-75
2022/12/27 10:03:19;;;;;;;63.77;5.13;;;;;;;;;;5051894;28;20480;-76
2022/12/27 10:05:49;;;;;;;61.47;4.80;;;;;;;;;;5052130;28;20502;-76
2022/12/27 10:08:26;;;;;;;61.50;4.80;;;;;;;;;;5052045;28;20448;-75
2022/12/27 10:11:34;;;;;;;59.17;4.13;;;;;;;;;;5057238;22;21003;-76
2022/12/27 10:14:02;;;;;;;59.97;4.50;;;;;;;;;;5030927;28;20464;-76
2022/12/27 10:16:34;;;;;;;60.87;4.23;;;;;;;;;;5031951;28;20447;-74
2022/12/27 10:19:06;;;;;;;63.80;4.10;;;;;;;;;;5034004;28;20952;-75
2022/12/27 10:21:35;;;;;;;60.30;4.40;;;;;;;;;;5035978;28;20473;-75
2022/12/27 10:24:12;;;;;;;58.90;3.80;;;;;;;;;;5035534;28;20485;-75
2022/12/27 10:26:39;;;;;;;60.53;4.30;;;;;;;;;;5035728;28;20467;-75
2022/12/27 10:29:14;;;;;;;60.50;3.83;;;;;;;;;;5034729;28;20459;-75
2022/12/27 10:31:44;;;;;;;58.70;3.50;;;;;;;;;;5035740;28;20513;-75
2022/12/27 10:34:13;;;;;;;61.77;4.03;;;;;;;;;;5035854;28;20821;-75
2022/12/27 10:36:41;;;;;;;58.63;3.43;;;;;;;;;;5035775;28;20455;-75
2022/12/27 10:39:16;;;;;;;61.27;4.20;;;;;;;;;;5034927;28;20445;-75
2022/12/27 10:41:49;;;;;;;59.70;4.40;;;;;;;;;;5035528;28;20472;-75
2022/12/27 10:44:16;;;;;;;59.30;3.77;;;;;;;;;;5035935;28;20484;-75
2022/12/27 10:46:49;;;;;;;60.87;4.17;;;;;;;;;;5035855;28;20445;-75
2022/12/27 10:49:23;;;;;;;59.40;4.30;;;;;;;;;;5035028;28;20545;-75
2022/12/27 10:51:51;;;;;;;59.40;4.07;;;;;;;;;;5035572;28;20890;-75
2022/12/27 10:54:21;;;;;;;65.47;4.23;;;;;;;;;;5035536;28;20437;-75
2022/12/27 10:56:48;;;;;;;59.37;3.80;;;;;;;;;;5035793;28;20456;-75
2022/12/27 10:59:16;;;;;;;60.43;3.80;;;;;;;;;;5034604;28;20968;-75
2022/12/27 11:01:45;;;;;;;59.87;4.47;;;;;;;;;;5035221;28;20476;-75
2022/12/27 11:04:17;;;;;;;61.07;4.07;;;;;;;;;;5035097;28;20481;-75
2022/12/27 11:06:44;;;;;;;58.67;3.20;;;;;;;;;;5035128;28;20531;-75
2022/12/27 11:09:25;;;;;;;61.67;4.27;;;;;;;;;;5034292;28;20463;-75
2022/12/27 11:11:53;;;;;;;59.17;2.93;;;;;;;;;;5034714;28;20484;-75
2022/12/27 11:14:20;;;;;;;59.90;3.83;;;;;;;;;;5035044;28;20459;-75
2022/12/27 11:16:49;;;;;;;63.23;4.77;;;;;;;;;;5034467;28;20823;-75
2022/12/27 11:19:22;;;;;;;61.57;4.90;;;;;;;;;;5034215;28;20445;-75
2022/12/27 11:21:50;;;;;;;61.27;3.67;;;;;;;;;;5034987;28;20468;-75
2022/12/27 11:24:18;;;;;;;61.13;4.40;;;;;;;;;;5034792;28;20487;-75
2022/12/27 11:26:51;;;;;;;60.50;4.20;;;;;;;;;;5034869;28;20453;-75
2022/12/27 11:29:20;;;;;;;61.20;3.23;;;;;;;;;;5034349;28;20448;-75
2022/12/27 11:31:48;;;;;;;60.30;3.53;;;;;;;;;;5035514;28;20468;-75
2022/12/27 11:34:18;;;;;;;58.90;3.47;;;;;;;;;;5036233;28;20862;-75
2022/12/27 11:36:48;;;;;;;59.97;3.80;;;;;;;;;;5035783;28;20957;-75
2022/12/27 11:39:30;;;;;;;58.97;3.70;;;;;;;;;;5034238;28;20867;-75
2022/12/27 11:41:58;;;;;;;62.30;3.70;;;;;;;;;;5033771;28;20553;-76
2022/12/27 11:44:27;;;;;;;62.67;3.90;;;;;;;;;;5034050;28;20495;-76
2022/12/27 11:46:57;;;;;;;63.87;3.63;;;;;;;;;;5034377;28;20460;-76
2022/12/27 11:49:28;;;;;;;60.80;4.60;;;;;;;;;;5033754;28;20460;-76
2022/12/27 11:52:16;;;;;;;59.20;3.67;;;;;;;;;;5035565;28;20474;-75
2022/12/27 11:54:58;;;;;;;62.33;4.00;;;;;;;;;;5036058;28;20442;-75
2022/12/27 11:57:33;;;;;;;59.67;3.70;;;;;;;;;;5033281;28;20946;-75
2022/12/27 12:00:07;;;;;;;61.23;3.60;;;;;;;;;;5035434;28;20445;-75
2022/12/27 12:02:45;;;;;;;58.90;3.87;;;;;;;;;;5036030;28;20488;-76
2022/12/27 12:05:26;;;;;;;59.97;4.07;;;;;;;;;;5035602;28;20493;-75
2022/12/27 12:08:06;;;;;;;60.00;3.50;;;;;;;;;;5035733;28;20437;-75
2022/12/27 12:10:39;;;;;;;61.77;3.73;;;;;;;;;;5035169;28;20479;-75
2022/12/27 12:13:13;;;;;;;59.80;3.67;;;;;;;;;;5035199;28;20519;-75
2022/12/27 12:15:53;;;;;;;58.20;3.10;;;;;;;;;;5035125;28;20455;-75
2022/12/27 12:18:31;;;;;;;60.37;3.80;;;;;;;;;;5035338;28;20436;-76
2022/12/27 12:21:10;;;;;;;60.40;3.70;;;;;;;;;;5035939;28;20469;-75
2022/12/27 12:23:47;;;;;;;59.37;3.37;;;;;;;;;;5036288;28;20489;-75
2022/12/27 12:26:17;;;;;;;59.10;3.10;;;;;;;;;;5037018;28;20457;-75
2022/12/27 12:29:05;;;;;;;59.17;3.00;;;;;;;;;;5036005;28;20961;-75
2022/12/27 12:31:48;;;;;;;59.60;3.30;;;;;;;;;;5036192;28;20484;-75
2022/12/27 12:34:24;;;;;;;63.07;3.73;;;;;;;;;;5036635;28;20456;-75
2022/12/27 12:37:08;;;;;;;59.70;3.40;;;;;;;;;;5037293;28;20437;-75
2022/12/27 12:39:45;;;;;;;60.20;3.13;;;;;;;;;;5036823;28;20438;-75
2022/12/27 12:42:18;;;;;;;59.30;3.17;;;;;;;;;;5036036;28;20475;-75
2022/12/27 12:45:12;;;;;;;59.00;3.43;;;;;;;;;;5036108;28;20487;-74
2022/12/27 12:47:58;;;;;;;59.37;3.30;;;;;;;;;;5035899;28;20449;-74
2022/12/27 12:50:30;;;;;;;60.43;3.60;;;;;;;;;;5035394;28;20946;-74
2022/12/27 12:53:07;;;;;;;60.07;3.73;;;;;;;;;;5035803;28;20445;-74
2022/12/27 12:55:46;;;;;;;60.27;3.40;;;;;;;;;;5035866;28;20437;-75
2022/12/27 12:58:21;;;;;;;59.60;3.10;;;;;;;;;;5035743;28;20457;-75
2022/12/27 13:01:05;;;;;;;60.63;3.03;;;;;;;;;;5035472;28;20469;-75
2022/12/27 13:03:45;;;;;;;60.17;3.40;;;;;;;;;;5037003;28;20436;-75
2022/12/27 13:06:19;;;;;;;61.37;3.17;;;;;;;;;;5036649;28;20816;-75
2022/12/27 13:08:53;;;;;;;58.80;3.20;;;;;;;;;;5036661;28;20914;-75
2022/12/27 13:11:34;;;;;;;61.80;3.70;;;;;;;;;;5036502;28;20483;-75
2022/12/27 13:14:16;;;;;;;60.43;3.83;;;;;;;;;;5036939;28;20437;-75
2022/12/27 13:16:49;;;;;;;60.47;3.97;;;;;;;;;;5033019;28;20456;-75
2022/12/27 13:19:24;;;;;;;61.67;3.50;;;;;;;;;;5032987;28;20536;-76
2022/12/27 13:21:58;;;;;;;61.80;3.13;;;;;;;;;;5032803;28;20984;-75
2022/12/27 13:24:34;;;;;;;59.20;3.30;;;;;;;;;;5033773;28;20860;-75
2022/12/27 13:27:06;;;;;;;61.90;3.20;;;;;;;;;;5034174;28;20447;-75
2022/12/27 13:29:44;;;;;;;59.23;3.30;;;;;;;;;;5032973;28;20453;-75
2022/12/27 13:32:17;;;;;;;59.37;3.20;;;;;;;;;;5033490;28;21012;-75
2022/12/27 13:34:48;;;;;;;60.17;3.50;;;;;;;;;;5033776;28;20814;-75
2022/12/27 13:37:20;;;;;;;59.30;3.33;;;;;;;;;;5034706;28;20948;-75
2022/12/27 13:39:55;;;;;;;62.30;3.50;;;;;;;;;;5035141;28;20825;-75
2022/12/27 13:42:32;;;;;;;58.67;3.00;;;;;;;;;;5034743;28;20471;-75
2022/12/27 13:45:03;;;;;;;58.97;3.30;;;;;;;;;;5035217;28;20480;-76
2022/12/27 13:47:51;;;;;;;64.27;3.43;;;;;;;;;;5035284;28;20459;-75
2022/12/27 13:50:30;;;;;;;59.17;3.63;;;;;;;;;;5034795;28;20445;-75
2022/12/27 13:53:05;;;;;;;59.60;3.60;;;;;;;;;;5034800;28;20483;-75
2022/12/27 13:55:37;;;;;;;60.80;4.30;;;;;;;;;;5034409;28;20808;-75
2022/12/27 13:58:14;;;;;;;59.73;3.43;;;;;;;;;;5034548;28;20430;-75
2022/12/27 14:00:45;;;;;;;60.23;2.90;;;;;;;;;;5032764;28;20483;-76
2022/12/27 14:03:27;;;;;;;58.77;3.20;;;;;;;;;;5033219;28;20452;-76
2022/12/27 14:06:12;;;;;;;59.97;3.40;;;;;;;;;;5032779;28;21009;-75
2022/12/27 14:09:00;;;;;;;59.13;3.20;;;;;;;;;;5035260;28;20449;-76
2022/12/27 14:11:34;;;;;;;58.23;3.13;;;;;;;;;;5035135;28;20719;-76
2022/12/27 14:14:02;;;;;;;62.33;3.80;;;;;;;;;;5036632;28;20933;-75
2022/12/27 14:16:43;;;;;;;59.80;3.67;;;;;;;;;;5036211;28;20475;-76
2022/12/27 14:19:15;;;;;;;58.40;2.90;;;;;;;;;;5036145;28;20455;-76
2022/12/27 14:21:47;;;;;;;60.90;3.10;;;;;;;;;;5036525;28;20469;-76
2022/12/27 14:24:21;;;;;;;59.07;3.20;;;;;;;;;;5036428;28;20488;-76
2022/12/27 14:27:18;;;;;;;58.57;3.13;;;;;;;;;;5036731;28;20445;-76
2022/12/27 14:30:03;;;;;;;59.20;3.20;;;;;;;;;;4936478;29;20955;-76
2022/12/27 14:32:45;;;;;;;61.40;3.90;;;;;;;;;;5025178;28;20465;-76
2022/12/27 14:35:27;;;;;;;60.37;4.20;;;;;;;;;;5036360;28;20453;-75
2022/12/27 14:38:04;;;;;;;62.40;3.57;;;;;;;;;;4992623;28;20481;-75
2022/12/27 14:40:48;;;;;;;61.20;3.20;;;;;;;;;;5034057;28;20471;-77
2022/12/27 14:43:30;;;;;;;62.10;3.10;;;;;;;;;;5032623;28;20969;-77
2022/12/27 14:46:15;;;;;;;60.87;3.50;;;;;;;;;;5029034;28;20488;-75
2022/12/27 14:49:00;;;;;;;58.37;3.13;;;;;;;;;;5031530;28;20456;-75
2022/12/27 14:51:41;;;;;;;58.90;3.07;;;;;;;;;;5031692;28;20488;-75
2022/12/27 14:54:28;;;;;;;60.60;3.77;;;;;;;;;;5032147;28;20441;-75
2022/12/27 14:57:03;;;;;;;61.77;3.73;;;;;;;;;;5032346;28;20531;-75
2022/12/27 14:59:37;;;;;;;60.40;3.67;;;;;;;;;;5031754;28;20441;-75
2022/12/27 15:02:18;;;;;;;59.67;3.37;;;;;;;;;;5032180;28;20480;-76
2022/12/27 15:04:57;;;;;;;62.03;3.30;;;;;;;;;;5034232;28;20495;-75
2022/12/27 15:07:32;;;;;;;59.40;3.97;;;;;;;;;;5035658;28;20463;-75
2022/12/27 15:10:03;;;;;;;66.07;3.70;;;;;;;;;;5034660;28;20466;-75
2022/12/27 15:12:35;;;;;;;61.07;3.50;;;;;;;;;;5035228;28;20491;-75
2022/12/27 15:15:13;;;;;;;57.67;3.10;;;;;;;;;;5035247;28;20437;-75
2022/12/27 15:17:49;;;;;;;62.63;4.00;;;;;;;;;;5035673;28;20929;-75
2022/12/27 15:20:32;;;;;;;60.73;4.03;;;;;;;;;;5034556;28;20462;-75
2022/12/27 15:23:07;;;;;;;58.90;3.73;;;;;;;;;;5035457;28;20828;-75
2022/12/27 15:25:43;;;;;;;62.80;3.73;;;;;;;;;;5035338;28;20864;-75
2022/12/27 15:28:13;;;;;;;59.37;3.50;;;;;;;;;;5035478;28;20975;-75
2022/12/27 15:30:46;;;;;;;61.70;4.27;;;;;;;;;;5034324;28;20473;-74
2022/12/27 15:33:18;;;;;;;59.57;3.60;;;;;;;;;;5035383;28;20472;-74
2022/12/27 15:35:52;;;;;;;62.83;3.90;;;;;;;;;;5036024;28;20811;-74
2022/12/27 15:38:39;;;;;;;61.60;4.30;;;;;;;;;;5035909;28;20475;-74
2022/12/27 15:41:23;;;;;;;62.90;4.23;;;;;;;;;;5035704;28;20465;-75
2022/12/27 15:44:07;;;;;;;58.47;3.43;;;;;;;;;;5035662;28;20460;-75
2022/12/27 15:46:44;;;;;;;60.47;4.30;;;;;;;;;;5036265;28;20832;-75
2022/12/27 15:49:26;;;;;;;61.50;4.30;;;;;;;;;;5035619;28;20455;-74
2022/12/27 15:51:58;;;;;;;61.20;4.10;;;;;;;;;;5032690;28;20481;-75
2022/12/27 15:54:30;;;;;;;59.07;3.93;;;;;;;;;;5036797;28;20445;-75
2022/12/27 15:57:06;;;;;;;59.10;4.07;;;;;;;;;;5036351;28;20960;-75
2022/12/27 15:59:40;;;;;;;61.20;4.90;;;;;;;;;;5035090;28;20452;-76
2022/12/27 16:02:26;;;;;;;59.40;4.20;;;;;;;;;;5034450;28;20480;-76
2022/12/27 16:04:55;;;;;;;59.67;3.73;;;;;;;;;;5034196;28;20495;-75
2022/12/27 16:07:38;;;;;;;61.33;4.93;;;;;;;;;;5034549;28;20544;-76
2022/12/27 16:10:23;;;;;;;63.73;4.30;;;;;;;;;;5033722;28;20449;-76
2022/12/27 16:12:51;;;;;;;61.73;4.13;;;;;;;;;;5034041;28;20456;-76
2022/12/27 16:15:39;;;;;;;60.10;4.43;;;;;;;;;;5034344;28;20461;-75
2022/12/27 16:18:10;;;;;;;111.90;35.13;;;;;;;;;;5036844;28;20817;-75
2022/12/27 16:20:38;;;;;;;74.90;12.23;;;;;;;;;;5035270;28;20496;-75
2022/12/27 16:23:07;;;;;;;73.00;10.00;;;;;;;;;;5034710;28;20451;-75
2022/12/27 16:25:36;;;;;;;63.15;5.90;;;;;;;;;;5033679;28;20854;-75
2022/12/27 16:28:05;;;;;;;62.97;5.13;;;;;;;;;;5033464;28;20210;-75
2022/12/27 16:30:50;;;;;;;64.28;4.10;;;;;;;;;;5032792;28;21002;-75
2022/12/27 16:33:38;;;;;;;61.00;5.00;;;;;;;;;;5034139;28;20210;-75